Latest Weather Observations for Flinders Reef

IDQ60801

Issued at 3:22 pm EST Thursday 28 May 2020 (issued every 10 minutes, with the page automatically refreshed every 10 minutes)

About weather observations | Map of weather stations | Latest weather observations for QLD | Other Formats
Station Details ID: 200783 Name: FLINDERS REEF Lat: -17.72 Lon: 148.45 Height: 2.6 m
Data from the previous 72 hours. | See also: Recent months at Flinders Reef
Date/Time
EST
Temp
°C
App
Temp
°C
Dew
Point
°C
Rel
Hum
%
Delta-T
°C
Wind Press
QNH
hPa
Press
MSL
hPa
Rain since
9am
mm
Dir  Spd
km/h
Gust
km/h
Spd
kts
Gust
kts
28/03:00pm 24.2 - - - - SSE 24 28 13 15 1016.0 1015.9 -
28/02:30pm 24.4 - - - - SSE 22 26 12 14 1016.2 1016.1 -
28/02:00pm 24.2 - - - - SSE 22 28 12 15 1016.3 1016.2 -
28/01:30pm 24.1 - - - - SSE 22 26 12 14 1016.3 1016.2 -
28/01:00pm 24.4 - - - - SE 20 24 11 13 1016.6 1016.5 -
28/12:30pm 24.3 - - - - SE 19 20 10 11 1016.9 1016.8 -
28/12:00pm 24.3 - - - - SE 19 22 10 12 1017.2 1017.1 -
28/11:30am 24.2 - - - - SE 19 22 10 12 1017.6 1017.5 -
28/11:00am 24.2 - - - - SSE 19 22 10 12 1018.0 1017.9 -
28/10:30am 24.2 - - - - SSE 19 22 10 12 1018.3 1018.2 -
28/10:00am 24.1 - - - - SE 20 26 11 14 1018.3 1018.2 -
28/09:30am 24.0 - - - - SSE 22 26 12 14 1018.5 1018.4 -
28/09:00am 24.0 - - - - SSE 24 30 13 16 1018.7 1018.6 -
28/08:30am 23.9 - - - - SSE 26 32 14 17 1018.3 1018.2 -
28/08:00am 23.9 - - - - SSE 24 28 13 15 1018.2 1018.1 -
28/07:30am 23.9 - - - - SSE 24 28 13 15 1018.0 1017.9 -
28/07:00am 23.7 - - - - SSE 24 28 13 15 1017.7 1017.6 -
28/06:30am 23.7 - - - - SSE 22 26 12 14 1017.3 1017.2 -
28/06:00am 23.8 - - - - SSE 24 28 13 15 1017.0 1016.9 -
28/05:30am 23.7 - - - - SE 24 32 13 17 1017.0 1016.9 -
28/05:00am 23.5 - - - - SE 24 30 13 16 1016.8 1016.7 -
28/04:30am 23.6 - - - - SE 22 28 12 15 1016.7 1016.6 -
28/04:00am 23.6 - - - - SE 24 28 13 15 1016.7 1016.6 -
28/03:30am 23.6 - - - - SE 24 30 13 16 1016.9 1016.8 -
28/03:00am 23.6 - - - - SSE 24 32 13 17 1017.1 1017.0 -
28/02:30am 23.6 - - - - SSE 22 28 12 15 1017.1 1017.0 -
28/02:00am 23.7 - - - - SE 22 26 12 14 1017.2 1017.1 -
28/01:30am 23.7 - - - - SE 24 28 13 15 1017.2 1017.1 -
28/01:00am 23.9 - - - - SE 22 28 12 15 1017.5 1017.4 -
28/12:30am 23.7 - - - - SE 24 30 13 16 1017.7 1017.6 -
28/12:00am 23.8 - - - - SE 24 30 13 16 1017.8 1017.7 -
 
Date/Time
EST
Temp
°C
App
Temp
°C
Dew
Point
°C
Rel
Hum
%
Delta-T
°C
Wind Press
QNH
hPa
Press
MSL
hPa
Rain since
9am
mm
Dir  Spd
km/h
Gust
km/h
Spd
kts
Gust
kts
27/11:30pm 23.9 - - - - SE 24 32 13 17 1018.0 1017.9 -
27/11:00pm 24.1 - - - - SE 26 30 14 16 1018.3 1018.2 -
27/10:30pm 24.0 - - - - SE 24 30 13 16 1018.4 1018.3 -
27/10:00pm 24.0 - - - - SE 24 32 13 17 1018.4 1018.3 -
27/09:30pm 23.9 - - - - SE 24 32 13 17 1018.3 1018.2 -
27/09:00pm 24.1 - - - - SE 28 33 15 18 1018.1 1018.0 -
27/08:30pm 24.1 - - - - SE 26 32 14 17 1018.0 1017.9 -
27/08:00pm 24.1 - - - - SE 26 32 14 17 1017.8 1017.7 -
27/07:30pm 24.2 - - - - SE 26 30 14 16 1017.6 1017.5 -
27/07:00pm 24.0 - - - - SE 26 30 14 16 1017.5 1017.4 -
27/06:30pm 24.2 - - - - ESE 22 28 12 15 1017.3 1017.2 -
27/06:00pm 23.9 - - - - SE 28 32 15 17 1017.1 1017.0 -
27/05:30pm 24.0 - - - - SE 20 26 11 14 1016.9 1016.8 -
27/05:00pm 24.1 - - - - SE 17 20 9 11 1016.7 1016.6 -
27/04:30pm 24.2 - - - - SE 19 24 10 13 1016.6 1016.5 -
27/04:00pm 24.1 - - - - SE 20 28 11 15 1016.5 1016.4 -
27/03:30pm 24.0 - - - - SSE 22 28 12 15 1016.4 1016.3 -
27/03:00pm 24.2 - - - - SE 19 24 10 13 1016.2 1016.1 -
27/02:30pm 24.0 - - - - SE 20 24 11 13 1016.4 1016.3 -
27/02:00pm 24.0 - - - - SE 19 24 10 13 1016.5 1016.4 -
27/01:30pm 23.9 - - - - SSE 20 26 11 14 1016.8 1016.7 -
27/01:00pm 24.0 - - - - SE 19 24 10 13 1017.0 1016.9 -
27/12:30pm 24.0 - - - - SE 19 24 10 13 1017.6 1017.5 -
27/12:00pm 23.9 - - - - SE 19 24 10 13 1017.9 1017.8 -
27/11:30am 23.7 - - - - SE 20 24 11 13 1018.0 1017.9 -
27/11:00am 23.8 - - - - ESE 20 28 11 15 1018.4 1018.3 -
27/10:30am 23.6 - - - - SE 20 24 11 13 1018.4 1018.3 -
27/10:00am 23.6 - - - - SE 22 26 12 14 1018.7 1018.6 -
27/09:30am 23.5 - - - - SE 20 24 11 13 1018.9 1018.8 -
27/09:00am 23.7 - - - - SE 20 26 11 14 1018.8 1018.7 -
27/08:30am 23.5 - - - - ESE 20 24 11 13 1018.8 1018.7 -
27/08:00am 23.3 - - - - SE 24 32 13 17 1018.6 1018.5 -
27/07:30am 23.1 - - - - SE 22 28 12 15 1018.4 1018.3 -
27/07:00am 23.0 - - - - SE 20 28 11 15 1018.3 1018.2 -
27/06:30am 23.0 - - - - SSE 22 30 12 16 1018.0 1017.9 -
27/06:00am 22.9 - - - - SE 22 28 12 15 1017.8 1017.7 -
27/05:30am 23.1 - - - - SE 20 26 11 14 1017.7 1017.6 -
27/05:00am 23.0 - - - - SE 20 26 11 14 1017.6 1017.5 -
27/04:30am 22.7 - - - - SE 22 30 12 16 1017.6 1017.5 -
27/04:00am 23.0 - - - - SSE 20 26 11 14 1017.6 1017.5 -
27/03:30am 22.9 - - - - SSE 22 30 12 16 1017.6 1017.5 -
27/03:00am 22.8 - - - - SSE 24 32 13 17 1017.7 1017.6 -
27/02:30am 22.8 - - - - SSE 20 26 11 14 1018.0 1017.9 -
27/02:00am 22.8 - - - - SSE 20 28 11 15 1018.1 1018.0 -
27/01:30am 23.0 - - - - SSE 20 26 11 14 1018.4 1018.3 -
27/01:00am 22.8 - - - - SSE 24 28 13 15 1018.5 1018.4 -
27/12:30am 22.9 - - - - SE 2 6 1 3 1018.6 1018.5 -
27/12:00am 22.9 - - - - SE 20 28 11 15 1018.7 1018.6 -
 
Date/Time
EST
Temp
°C
App
Temp
°C
Dew
Point
°C
Rel
Hum
%
Delta-T
°C
Wind Press
QNH
hPa
Press
MSL
hPa
Rain since
9am
mm
Dir  Spd
km/h
Gust
km/h
Spd
kts
Gust
kts
26/11:30pm 22.9 - - - - SE 17 24 9 13 1018.7 1018.6 -
26/11:00pm 22.9 - - - - SE 17 22 9 12 1018.8 1018.7 -
26/10:30pm 23.0 - - - - SE 17 22 9 12 1018.8 1018.7 -
26/10:00pm 22.8 - - - - SE 19 24 10 13 1018.8 1018.7 -
26/09:30pm 22.9 - - - - SSE 19 24 10 13 1018.7 1018.6 -
26/09:00pm 23.0 - - - - SE 22 26 12 14 1018.7 1018.6 -
26/08:30pm 22.9 - - - - SE 17 20 9 11 1018.5 1018.4 -
26/08:00pm 23.0 - - - - SE 22 30 12 16 1018.2 1018.1 -
26/07:30pm 22.9 - - - - ESE 19 24 10 13 1018.0 1017.9 -
26/07:00pm 23.1 - - - - SE 17 24 9 13 1017.8 1017.7 -
26/06:30pm 23.1 - - - - SE 17 22 9 12 1017.6 1017.5 -
26/06:00pm 23.0 - - - - ESE 17 24 9 13 1017.5 1017.4 -
26/05:30pm 22.9 - - - - SE 17 24 9 13 1017.1 1017.0 -
26/05:00pm 22.8 - - - - ESE 17 20 9 11 1016.8 1016.7 -
26/04:30pm 22.9 - - - - SE 20 24 11 13 1016.6 1016.5 -
26/04:00pm 23.1 - - - - ESE 15 22 8 12 1016.6 1016.5 -
26/03:30pm 23.0 - - - - SE 17 20 9 11 1016.6 1016.5 -
26/03:00pm 22.9 - - - - SE 17 20 9 11 1016.7 1016.6 -
26/02:30pm 22.8 - - - - SE 19 24 10 13 1016.8 1016.7 -
26/02:00pm 22.8 - - - - SE 20 26 11 14 1017.0 1016.9 -
26/01:30pm 22.8 - - - - SE 20 26 11 14 1017.3 1017.2 -
26/01:00pm 22.7 - - - - SE 22 28 12 15 1017.6 1017.5 -
26/12:30pm 22.7 - - - - SE 19 24 10 13 1018.1 1018.0 -
26/12:00pm 22.6 - - - - SE 20 28 11 15 1018.4 1018.3 -
26/11:30am 22.5 - - - - SE 22 26 12 14 1018.7 1018.6 -
26/11:00am 22.5 - - - - SE 20 24 11 13 1018.9 1018.8 -
26/10:30am 22.4 - - - - SE 22 28 12 15 1019.2 1019.1 -
26/10:00am 22.4 - - - - ESE 20 28 11 15 1019.4 1019.3 -
26/09:30am 22.4 - - - - SE 22 30 12 16 1019.4 1019.3 -
26/09:00am 22.2 - - - - SE 22 28 12 15 1019.3 1019.2 -
26/08:30am 22.5 - - - - SE 22 28 12 15 1019.2 1019.1 -
26/08:00am 22.2 - - - - SE 22 28 12 15 1018.9 1018.8 -
26/07:30am 22.2 - - - - SSE 24 30 13 16 1018.6 1018.5 -
26/07:00am 22.0 - - - - SE 24 30 13 16 1018.3 1018.2 -
26/06:30am 21.9 - - - - SE 24 33 13 18 1017.9 1017.8 -
26/06:00am 21.7 - - - - SSE 26 32 14 17 1017.6 1017.5 -
26/05:30am 21.9 - - - - SSE 24 32 13 17 1017.4 1017.3 -
26/05:00am 21.8 - - - - SSE 22 28 12 15 1017.2 1017.1 -
26/04:30am 21.9 - - - - SSE 19 22 10 12 1017.0 1016.9 -
26/04:00am 22.0 - - - - SSE 20 28 11 15 1016.9 1016.8 -
26/03:30am 21.8 - - - - SSE 22 26 12 14 1016.8 1016.7 -
26/03:00am 21.8 - - - - SSE 20 24 11 13 1017.0 1016.9 -
26/02:30am 21.8 - - - - SSE 19 24 10 13 1017.1 1017.0 -
26/02:00am 21.9 - - - - SSE 17 22 9 12 1017.2 1017.1 -
26/01:30am 21.8 - - - - S 15 17 8 9 1017.4 1017.3 -
26/01:00am 21.9 - - - - SSE 17 22 9 12 1017.6 1017.5 -
26/12:30am 21.8 - - - - S 15 20 8 11 1017.8 1017.7 -
26/12:00am 21.8 - - - - S 17 24 9 13 1017.8 1017.7 -
 
Date/Time
EST
Temp
°C
App
Temp
°C
Dew
Point
°C
Rel
Hum
%
Delta-T
°C
Wind Press
QNH
hPa
Press
MSL
hPa
Rain since
9am
mm
Dir  Spd
km/h
Gust
km/h
Spd
kts
Gust
kts
25/11:30pm 21.8 - - - - S 17 20 9 11 1018.0 1017.9 -
25/11:00pm 21.8 - - - - SSW 15 19 8 10 1018.1 1018.0 -
25/10:30pm 21.8 - - - - S 13 19 7 10 1018.3 1018.2 -
25/10:00pm 21.9 - - - - SSE 13 17 7 9 1018.5 1018.4 -
25/09:30pm 21.8 - - - - SSW 15 20 8 11 1018.5 1018.4 -
25/09:00pm 21.8 - - - - S 13 22 7 12 1018.3 1018.2 -
25/08:30pm 21.7 - - - - S 13 17 7 9 1018.3 1018.2 -
25/08:00pm 21.8 - - - - SSE 11 15 6 8 1018.0 1017.9 -
25/07:30pm 21.7 - - - - S 13 17 7 9 1017.7 1017.6 -
25/07:00pm 21.6 - - - - S 15 20 8 11 1017.3 1017.2 -
25/06:30pm 21.6 - - - - SSW 13 19 7 10 1017.0 1016.9 -
25/06:00pm 21.5 - - - - S 17 22 9 12 1016.6 1016.5 -
25/05:30pm 21.5 - - - - SSW 15 20 8 11 1016.4 1016.3 -
25/05:00pm 21.6 - - - - S 13 19 7 10 1016.1 1016.0 -
25/04:30pm 21.5 - - - - S 13 17 7 9 1015.9 1015.8 -
25/04:00pm 21.5 - - - - S 19 24 10 13 1015.6 1015.5 -
25/03:30pm 21.4 - - - - SW 15 20 8 11 1015.6 1015.5 -

Other formats

Comma delimited format used in spreadsheet applications
http://www.bom.gov.au/fwo/IDQ60801/IDQ60801.94290.axf

JavaScript Object Notation format (JSON) in row-major order
http://www.bom.gov.au/fwo/IDQ60801/IDQ60801.94290.json

Data quality

Most of these data are generated automatically and are frequently updated. Quality checks on data are not normally performed. It is possible for incorrect values to appear. Refer to information at About Latest Weather Observations and please check the disclaimer before using these data.